Time;durP1;ratioP1;P1;durP2;ratioP2;P2;SDS_P1;SDS_P2;PMS_P1;PMS_P2;Temp;Humidity;BMP_temperature;BMP_pressure;BME280_temperature;BME280_humidity;BME280_pressure;Samples;Min_cycle;Max_cycle;Signal;HPM_P1;HPM_P2
2022/04/19 00:00:28;;;;;;;8.75;5.45;;;11.90;58.60;;;;;;4854698;29;20394;-80
2022/04/19 00:02:54;;;;;;;7.68;5.40;;;11.80;58.20;;;;;;4857936;29;20047;-80
2022/04/19 00:05:19;;;;;;;10.57;5.38;;;11.80;58.70;;;;;;4875841;29;20068;-80
2022/04/19 00:07:45;;;;;;;7.30;5.07;;;11.80;59.00;;;;;;4874110;29;20539;-80
2022/04/19 00:10:12;;;;;;;7.97;5.80;;;11.80;58.80;;;;;;4844279;29;20045;-80
2022/04/19 00:12:37;;;;;;;7.47;5.40;;;11.70;59.30;;;;;;4873474;29;20491;-77
2022/04/19 00:15:05;;;;;;;8.63;5.80;;;11.70;59.40;;;;;;4843193;29;20047;-77
2022/04/19 00:17:30;;;;;;;8.07;4.82;;;11.60;59.90;;;;;;4870576;29;20491;-78
2022/04/19 00:19:56;;;;;;;7.45;4.70;;;11.60;59.80;;;;;;4859193;29;20215;-78
2022/04/19 00:22:22;;;;;;;8.60;5.75;;;11.50;60.20;;;;;;4858137;29;20037;-78
2022/04/19 00:24:47;;;;;;;8.30;5.45;;;11.50;59.60;;;;;;4844122;29;20033;-78
2022/04/19 00:27:13;;;;;;;7.05;4.47;;;11.40;59.40;;;;;;4843215;29;20041;-77
2022/04/19 00:29:41;;;;;;;8.60;5.93;;;11.40;60.00;;;;;;4857974;29;20483;-81
2022/04/19 00:32:11;;;;;;;9.27;5.75;;;11.40;60.30;;;;;;4857115;29;20046;-77
2022/04/19 00:34:38;;;;;;;9.77;5.10;;;11.30;60.90;;;;;;4855718;29;20506;-79
2022/04/19 00:37:05;;;;;;;9.98;5.72;;;11.20;60.60;;;;;;4841802;29;20041;-79
2022/04/19 00:39:31;;;;;;;7.03;4.90;;;11.10;61.40;;;;;;4876433;29;20379;-78
2022/04/19 00:41:57;;;;;;;6.85;4.80;;;11.10;61.50;;;;;;4843692;29;20045;-77
2022/04/19 00:44:25;;;;;;;7.50;5.13;;;11.10;61.80;;;;;;4861132;29;20073;-79
2022/04/19 00:46:51;;;;;;;9.05;5.50;;;11.00;61.60;;;;;;4842591;29;20048;-77
2022/04/19 00:49:17;;;;;;;9.82;5.22;;;11.00;61.00;;;;;;4872395;29;20063;-78
2022/04/19 00:51:46;;;;;;;7.80;4.93;;;11.00;61.00;;;;;;4855714;29;20511;-78
2022/04/19 00:54:14;;;;;;;7.82;5.15;;;11.00;61.20;;;;;;4859349;29;20584;-77
2022/04/19 00:56:40;;;;;;;9.27;5.70;;;10.90;60.40;;;;;;4854895;29;20155;-77
2022/04/19 00:59:09;;;;;;;8.30;5.70;;;10.80;60.40;;;;;;4855528;29;20068;-79
2022/04/19 01:01:37;;;;;;;9.43;5.43;;;10.80;61.20;;;;;;4843238;29;20037;-81
2022/04/19 01:04:03;;;;;;;7.50;5.15;;;10.80;61.60;;;;;;4869564;29;20048;-80
2022/04/19 01:06:29;;;;;;;7.85;5.03;;;10.70;61.60;;;;;;4853813;29;20037;-80
2022/04/19 01:08:55;;;;;;;10.45;5.80;;;10.70;62.10;;;;;;4842309;29;20067;-81
2022/04/19 01:14:05;;;;;;;10.48;6.32;;;10.50;63.50;;;;;;4870090;29;20049;-81
2022/04/19 01:16:31;;;;;;;8.23;5.22;;;10.50;63.10;;;;;;4850039;29;20051;-81
2022/04/19 01:18:57;;;;;;;10.88;6.30;;;10.40;63.30;;;;;;4855368;29;20506;-80
2022/04/19 01:21:26;;;;;;;9.35;5.72;;;10.40;64.30;;;;;;4854728;29;20051;-79
2022/04/19 01:23:52;;;;;;;9.90;6.15;;;10.40;65.30;;;;;;4857465;29;20040;-81
2022/04/19 01:26:18;;;;;;;10.27;6.65;;;10.40;65.90;;;;;;4873233;29;20451;-81
2022/04/19 01:28:43;;;;;;;8.98;5.90;;;10.40;66.00;;;;;;4852644;29;20045;-81
2022/04/19 01:31:10;;;;;;;9.73;6.57;;;10.40;66.40;;;;;;4845534;29;20108;-81
2022/04/19 01:33:36;;;;;;;10.52;6.38;;;10.40;66.50;;;;;;4866037;29;20049;-80
2022/04/19 01:36:03;;;;;;;9.57;5.93;;;10.30;67.70;;;;;;4857880;29;20128;-81
2022/04/19 01:38:28;;;;;;;10.43;6.07;;;10.30;68.00;;;;;;4855491;29;20407;-82
2022/04/19 01:40:54;;;;;;;9.80;6.93;;;10.20;68.30;;;;;;4874746;29;20037;-81
2022/04/19 01:43:20;;;;;;;10.43;6.65;;;10.20;69.60;;;;;;4843962;29;20084;-83
2022/04/19 01:45:46;;;;;;;9.63;6.50;;;10.20;70.70;;;;;;4856275;29;20055;-81
2022/04/19 01:48:11;;;;;;;10.25;6.75;;;10.10;70.90;;;;;;4867566;29;20052;-82
2022/04/19 01:50:38;;;;;;;8.98;6.82;;;10.10;71.20;;;;;;4856177;29;20499;-81
2022/04/19 01:53:04;;;;;;;9.77;6.60;;;10.00;71.50;;;;;;4841942;29;20045;-82
2022/04/19 01:55:30;;;;;;;9.57;6.55;;;10.00;72.40;;;;;;4872741;29;20997;-80
2022/04/19 01:57:59;;;;;;;10.43;6.45;;;9.90;74.10;;;;;;4856708;29;20033;-80
2022/04/19 02:00:26;;;;;;;11.75;6.88;;;9.90;76.30;;;;;;4852303;29;20042;-82
2022/04/19 02:02:55;;;;;;;10.07;6.65;;;9.80;78.40;;;;;;4854263;29;20048;-81
2022/04/19 02:05:21;;;;;;;12.50;6.28;;;9.80;80.80;;;;;;4857135;29;20415;-82
2022/04/19 02:07:47;;;;;;;9.80;6.47;;;9.70;82.90;;;;;;4838674;29;20045;-81
2022/04/19 02:10:15;;;;;;;8.43;6.05;;;9.70;85.30;;;;;;4853255;29;20063;-82
2022/04/19 02:12:42;;;;;;;9.80;6.55;;;9.60;88.20;;;;;;4854942;29;20433;-82
2022/04/19 02:15:08;;;;;;;11.85;6.97;;;9.60;90.60;;;;;;4839161;29;20037;-82
2022/04/19 02:17:41;;;;;;;10.52;6.75;;;9.60;91.80;;;;;;4853489;29;20363;-81
2022/04/19 02:20:07;;;;;;;10.82;7.03;;;9.60;91.90;;;;;;4868945;29;20737;-81
2022/04/19 02:22:33;;;;;;;10.90;6.43;;;9.50;92.70;;;;;;4852491;29;20120;-81
2022/04/19 02:25:00;;;;;;;10.35;6.68;;;9.50;91.90;;;;;;4868533;29;20048;-82
2022/04/19 02:27:26;;;;;;;10.60;6.78;;;9.40;90.90;;;;;;4870787;29;20139;-82
2022/04/19 02:29:54;;;;;;;10.00;6.20;;;9.40;90.60;;;;;;4856146;29;20051;-81
2022/04/19 02:32:20;;;;;;;13.57;6.75;;;9.40;90.80;;;;;;4855207;29;20094;-82
2022/04/19 02:34:47;;;;;;;10.57;6.45;;;9.30;89.50;;;;;;4851242;29;20503;-82
2022/04/19 02:37:13;;;;;;;9.07;5.45;;;9.30;88.30;;;;;;4853011;29;20049;-81
2022/04/19 02:39:38;;;;;;;10.13;6.60;;;9.20;85.60;;;;;;4872787;29;20558;-80
2022/04/19 02:42:06;;;;;;;10.93;6.63;;;9.20;85.00;;;;;;4871368;29;20444;-80
2022/04/19 02:44:32;;;;;;;10.00;6.35;;;9.10;83.50;;;;;;4840677;29;20065;-82
2022/04/19 02:46:58;;;;;;;12.20;5.80;;;9.10;83.80;;;;;;4865592;29;20194;-82
2022/04/19 02:49:24;;;;;;;10.55;5.50;;;9.10;80.00;;;;;;4848396;29;20159;-81
2022/04/19 02:51:50;;;;;;;10.10;6.18;;;9.00;79.00;;;;;;4866106;29;20048;-81
2022/04/19 02:54:17;;;;;;;8.88;5.05;;;9.00;77.90;;;;;;4866009;29;20479;-81
2022/04/19 02:56:43;;;;;;;9.43;6.13;;;9.00;76.60;;;;;;4850598;29;20624;-81
2022/04/19 02:59:09;;;;;;;9.30;5.55;;;8.90;78.90;;;;;;4835679;29;20538;-82
2022/04/19 03:01:35;;;;;;;9.52;5.20;;;8.90;77.10;;;;;;4834981;29;20056;-82
2022/04/19 03:04:01;;;;;;;8.63;6.50;;;8.90;76.90;;;;;;4856734;29;20041;-81
2022/04/19 03:06:26;;;;;;;9.85;5.50;;;8.90;78.30;;;;;;4867854;29;20069;-79
2022/04/19 03:08:53;;;;;;;7.68;5.22;;;8.90;76.80;;;;;;4853016;29;20049;-79
2022/04/19 03:11:19;;;;;;;8.23;5.72;;;8.90;76.10;;;;;;4859902;29;20064;-82
2022/04/19 03:13:45;;;;;;;9.02;5.60;;;8.90;76.60;;;;;;4870467;29;20238;-81
2022/04/19 03:16:13;;;;;;;7.82;5.57;;;8.80;76.30;;;;;;4851486;29;20041;-81
2022/04/19 03:18:41;;;;;;;8.45;4.65;;;8.80;75.40;;;;;;4848783;29;20539;-82
2022/04/19 03:21:11;;;;;;;8.75;5.30;;;8.80;75.70;;;;;;4852272;29;20052;-82
2022/04/19 03:29:06;;;;;;;9.32;5.45;;;8.70;75.20;;;;;;4866723;29;20426;-80
2022/04/19 03:31:33;;;;;;;16.55;5.20;;;8.70;76.30;;;;;;4869906;29;20041;-82
2022/04/19 03:33:59;;;;;;;9.57;5.13;;;8.60;77.60;;;;;;4870501;29;20051;-82
2022/04/19 03:36:25;;;;;;;9.80;5.47;;;8.60;76.60;;;;;;4835980;29;20032;-81
2022/04/19 03:38:53;;;;;;;11.68;5.53;;;8.60;77.90;;;;;;4869595;29;20109;-82
2022/04/19 03:41:19;;;;;;;7.30;4.28;;;8.60;76.60;;;;;;4872056;29;20053;-82
2022/04/19 03:43:45;;;;;;;6.82;4.55;;;8.60;77.40;;;;;;4869767;29;20059;-82
2022/04/19 03:46:10;;;;;;;9.25;5.70;;;8.60;76.50;;;;;;4873432;29;20057;-82
2022/04/19 03:48:36;;;;;;;8.05;5.00;;;8.60;75.90;;;;;;4867689;29;20124;-81
2022/04/19 03:51:03;;;;;;;10.23;5.85;;;8.50;75.90;;;;;;4854253;29;20149;-81
2022/04/19 03:53:30;;;;;;;9.13;5.68;;;8.50;76.70;;;;;;4871439;29;20519;-80
2022/04/19 03:55:55;;;;;;;8.25;4.95;;;8.50;77.00;;;;;;4854005;29;20051;-82
2022/04/19 03:58:21;;;;;;;9.00;5.40;;;8.50;77.30;;;;;;4870022;29;20042;-82
2022/04/19 04:00:48;;;;;;;7.97;4.80;;;8.40;78.30;;;;;;4823481;29;20779;-82
2022/04/19 04:03:13;;;;;;;7.35;4.38;;;8.40;78.00;;;;;;4869762;29;20136;-80
2022/04/19 04:05:39;;;;;;;10.32;6.40;;;8.40;77.70;;;;;;4869464;29;20149;-82
2022/04/19 04:08:05;;;;;;;10.05;6.65;;;8.30;80.80;;;;;;4850405;29;20487;-80
2022/04/19 04:10:31;;;;;;;10.20;6.47;;;8.40;83.10;;;;;;4835624;29;20045;-81
2022/04/19 04:12:58;;;;;;;8.38;5.50;;;8.40;84.10;;;;;;4837054;29;20384;-82
2022/04/19 04:15:24;;;;;;;8.10;5.32;;;8.30;83.20;;;;;;4836730;29;20546;-82
2022/04/19 04:17:49;;;;;;;10.48;5.80;;;8.30;83.30;;;;;;4853044;29;20044;-81
2022/04/19 04:20:15;;;;;;;8.20;5.22;;;8.30;82.50;;;;;;4835756;29;20128;-82
2022/04/19 04:22:41;;;;;;;10.02;5.75;;;8.30;84.60;;;;;;4851982;29;20069;-80
2022/04/19 04:25:07;;;;;;;8.73;5.45;;;8.30;85.60;;;;;;4870866;29;20037;-81
2022/04/19 04:27:33;;;;;;;12.02;6.40;;;8.20;84.30;;;;;;4853630;29;20507;-82
2022/04/19 04:29:59;;;;;;;10.57;5.72;;;8.30;86.20;;;;;;4855543;29;20048;-82
2022/04/19 04:32:24;;;;;;;10.40;4.60;;;8.20;86.60;;;;;;4857037;29;21448;-81
2022/04/19 04:34:50;;;;;;;9.65;5.75;;;8.20;83.60;;;;;;4857543;29;20045;-82
2022/04/19 04:37:15;;;;;;;8.55;5.88;;;8.30;84.20;;;;;;4851734;29;20128;-82
2022/04/19 04:39:41;;;;;;;11.80;5.80;;;8.20;84.20;;;;;;4866344;29;20441;-82
2022/04/19 04:42:07;;;;;;;10.30;6.20;;;8.30;83.40;;;;;;4873563;29;20183;-80
2022/04/19 04:44:33;;;;;;;8.68;5.18;;;8.20;83.80;;;;;;4857616;29;20135;-82
2022/04/19 04:49:42;;;;;;;11.68;5.90;;;8.20;82.00;;;;;;4851193;29;20604;-82
2022/04/19 04:52:13;;;;;;;11.88;5.97;;;8.30;81.60;;;;;;4838427;29;20051;-80
2022/04/19 04:54:40;;;;;;;11.32;5.43;;;8.20;80.50;;;;;;4855221;29;20559;-81
2022/04/19 04:57:06;;;;;;;9.77;5.80;;;8.20;79.60;;;;;;4855885;29;20483;-81
2022/04/19 04:59:33;;;;;;;8.82;4.97;;;8.20;79.10;;;;;;4857277;29;20049;-82
2022/04/19 05:02:00;;;;;;;10.18;5.40;;;8.30;80.50;;;;;;4872560;29;20407;-81
2022/04/19 05:04:26;;;;;;;10.15;5.75;;;8.20;79.30;;;;;;4871124;29;20038;-82
2022/04/19 05:06:51;;;;;;;9.85;5.97;;;8.30;79.40;;;;;;4850947;29;20467;-81
2022/04/19 05:09:17;;;;;;;8.75;5.15;;;8.30;79.70;;;;;;4870605;29;20045;-82
2022/04/19 05:11:46;;;;;;;9.13;5.47;;;8.30;78.90;;;;;;4870527;29;20517;-81
2022/04/19 05:14:15;;;;;;;11.35;5.20;;;8.30;78.60;;;;;;4854310;29;20123;-81
2022/04/19 05:16:42;;;;;;;11.95;5.68;;;8.30;78.40;;;;;;4843572;29;20044;-82
2022/04/19 05:19:08;;;;;;;9.55;5.45;;;8.30;77.90;;;;;;4854707;29;20055;-82
2022/04/19 05:21:37;;;;;;;8.52;4.85;;;8.40;79.90;;;;;;4871715;29;20041;-82
2022/04/19 05:24:04;;;;;;;10.43;5.35;;;8.40;78.40;;;;;;4875682;29;20530;-82
2022/04/19 05:26:30;;;;;;;8.10;5.13;;;8.40;77.80;;;;;;4858015;29;20120;-81
2022/04/19 05:28:56;;;;;;;9.63;5.57;;;8.40;78.10;;;;;;4872176;29;20077;-82
2022/04/19 05:31:22;;;;;;;11.70;6.57;;;8.40;77.80;;;;;;4872237;29;20124;-81
2022/04/19 05:33:48;;;;;;;9.30;6.10;;;8.50;78.00;;;;;;4872627;29;20380;-82
2022/04/19 05:36:14;;;;;;;10.27;5.80;;;8.50;77.10;;;;;;4844414;29;20314;-82
2022/04/19 05:38:39;;;;;;;11.30;6.32;;;8.50;77.30;;;;;;4841882;29;20132;-82
2022/04/19 05:41:05;;;;;;;10.68;6.60;;;8.60;77.20;;;;;;4876396;29;20055;-82
2022/04/19 05:43:31;;;;;;;9.57;6.20;;;8.60;77.00;;;;;;4855991;29;20426;-80
2022/04/19 05:45:59;;;;;;;8.82;5.40;;;8.70;76.90;;;;;;4855541;29;20493;-81
2022/04/19 05:48:25;;;;;;;10.65;6.47;;;8.80;76.70;;;;;;4841356;29;20045;-82
2022/04/19 05:50:51;;;;;;;11.68;6.55;;;8.80;76.00;;;;;;4842292;29;20045;-82
2022/04/19 05:53:17;;;;;;;9.88;6.07;;;8.90;75.20;;;;;;4856552;29;20399;-82
2022/04/19 05:55:43;;;;;;;12.65;7.38;;;9.00;74.70;;;;;;4857003;29;20096;-82
2022/04/19 05:58:09;;;;;;;13.50;6.93;;;9.10;75.30;;;;;;4855647;29;20045;-81
2022/04/19 06:00:35;;;;;;;13.60;7.18;;;9.10;74.60;;;;;;4859462;29;20069;-82
2022/04/19 06:05:45;;;;;;;14.10;7.25;;;9.30;74.20;;;;;;4868867;29;20634;-82
2022/04/19 06:08:10;;;;;;;12.55;7.28;;;9.40;73.70;;;;;;4871502;29;20131;-82
2022/04/19 06:10:36;;;;;;;17.40;8.48;;;9.50;72.80;;;;;;4836824;29;20045;-80
2022/04/19 06:13:02;;;;;;;17.65;7.85;;;9.60;72.30;;;;;;4858910;29;20045;-84
2022/04/19 06:15:28;;;;;;;14.25;8.20;;;9.60;72.40;;;;;;4874911;29;20075;-84
2022/04/19 06:17:53;;;;;;;13.75;8.10;;;9.70;71.70;;;;;;4836167;29;20071;-83
2022/04/19 06:20:19;;;;;;;14.93;7.30;;;9.70;72.30;;;;;;4836836;29;20128;-84
2022/04/19 06:22:45;;;;;;;12.00;7.90;;;9.80;71.10;;;;;;4853995;29;20037;-83
2022/04/19 06:25:12;;;;;;;13.27;8.02;;;9.80;70.70;;;;;;4871905;29;20089;-83
2022/04/19 06:27:38;;;;;;;13.88;7.85;;;9.90;70.70;;;;;;4839533;29;20059;-84
2022/04/19 06:30:04;;;;;;;12.52;7.63;;;9.90;70.60;;;;;;4852686;29;20503;-85
2022/04/19 06:32:30;;;;;;;13.15;7.80;;;10.00;70.60;;;;;;4844101;29;20383;-85
2022/04/19 06:34:56;;;;;;;14.85;7.55;;;10.00;70.50;;;;;;4844522;29;20040;-87
2022/04/19 06:37:25;;;;;;;9.52;6.00;;;10.00;70.60;;;;;;4843008;29;20097;-87
2022/04/19 06:39:50;;;;;;;13.50;7.22;;;10.10;70.80;;;;;;4857925;29;20452;-85
2022/04/19 06:42:16;;;;;;;12.10;6.70;;;10.20;70.80;;;;;;4872591;29;20061;-87
2022/04/19 06:44:42;;;;;;;13.52;7.97;;;10.20;70.70;;;;;;4842593;29;20051;-86
2022/04/19 06:47:08;;;;;;;12.23;7.38;;;10.30;70.60;;;;;;4843594;29;20041;-87
2022/04/19 06:49:34;;;;;;;13.27;7.45;;;10.40;70.90;;;;;;4858341;29;20068;-85
2022/04/19 06:52:00;;;;;;;10.50;6.60;;;10.50;70.80;;;;;;4873722;29;20113;-85
2022/04/19 06:54:26;;;;;;;12.25;6.93;;;10.60;71.80;;;;;;4856918;29;20040;-85
2022/04/19 06:56:51;;;;;;;12.45;7.85;;;10.60;70.60;;;;;;4839022;29;20403;-87
2022/04/19 06:59:17;;;;;;;12.50;7.07;;;10.70;70.50;;;;;;4858477;29;20040;-81
2022/04/19 07:01:43;;;;;;;12.25;6.82;;;10.80;71.00;;;;;;4857997;29;20076;-86
2022/04/19 07:04:09;;;;;;;11.93;6.70;;;10.80;70.80;;;;;;4845219;29;20479;-86
2022/04/19 07:06:36;;;;;;;11.05;7.10;;;10.90;70.70;;;;;;4853026;29;20120;-85
2022/04/19 07:09:02;;;;;;;12.88;7.00;;;11.00;70.30;;;;;;4849877;29;20423;-86
2022/04/19 07:11:28;;;;;;;11.40;7.13;;;11.10;70.10;;;;;;4840571;29;20128;-86
2022/04/19 07:13:54;;;;;;;12.82;7.05;;;11.20;70.10;;;;;;4838298;29;20041;-85
2022/04/19 07:16:20;;;;;;;11.13;6.20;;;11.40;69.80;;;;;;4842285;29;20064;-85
2022/04/19 07:18:45;;;;;;;12.10;6.38;;;11.40;69.20;;;;;;4870305;29;20076;-86
2022/04/19 07:26:45;;;;;;;14.43;5.85;;;11.80;69.00;;;;;;4865966;29;20144;-84
2022/04/19 07:29:11;;;;;;;11.63;5.85;;;11.90;69.50;;;;;;4839501;29;20044;-85
2022/04/19 07:31:42;;;;;;;10.25;6.25;;;12.00;68.20;;;;;;4835887;29;20136;-86
2022/04/19 07:34:09;;;;;;;10.50;5.70;;;12.10;68.10;;;;;;4858429;29;20452;-86
2022/04/19 07:36:39;;;;;;;8.77;5.35;;;12.20;67.70;;;;;;4842696;29;20060;-87
2022/04/19 07:39:06;;;;;;;8.20;5.30;;;12.40;67.50;;;;;;4861583;29;20108;-85
2022/04/19 07:41:34;;;;;;;10.05;5.30;;;12.50;67.00;;;;;;4879442;29;20041;-86
2022/04/19 07:44:01;;;;;;;9.82;5.47;;;12.60;65.50;;;;;;4853443;29;20089;-83
2022/04/19 07:46:26;;;;;;;9.45;5.82;;;12.70;65.10;;;;;;4838605;29;20455;-87
2022/04/19 07:48:52;;;;;;;8.52;5.10;;;12.80;65.00;;;;;;4851681;29;20026;-86
2022/04/19 07:51:18;;;;;;;13.98;6.15;;;12.90;65.40;;;;;;4854139;29;20078;-86
2022/04/19 07:53:44;;;;;;;7.30;4.70;;;13.10;65.30;;;;;;4855001;29;20030;-85
2022/04/19 07:56:10;;;;;;;11.65;5.60;;;13.20;64.40;;;;;;4838007;29;20045;-85
2022/04/19 07:58:36;;;;;;;9.98;5.47;;;13.30;62.80;;;;;;4853956;29;20049;-84
2022/04/19 08:01:02;;;;;;;8.10;4.70;;;13.40;62.50;;;;;;4869922;29;20093;-85
2022/04/19 08:03:28;;;;;;;9.15;5.72;;;13.50;62.30;;;;;;4853913;29;20045;-84
2022/04/19 08:05:55;;;;;;;6.20;3.92;;;13.70;62.10;;;;;;4849501;29;20447;-82
2022/04/19 08:08:21;;;;;;;7.50;4.43;;;13.80;61.90;;;;;;4834135;29;20048;-85
2022/04/19 08:10:48;;;;;;;7.57;4.63;;;14.00;61.40;;;;;;4837450;29;20484;-84
2022/04/19 08:13:14;;;;;;;8.85;5.63;;;14.10;60.20;;;;;;4836971;29;20045;-86
2022/04/19 08:15:40;;;;;;;8.85;4.30;;;14.20;59.10;;;;;;4851151;29;20052;-87
2022/04/19 08:18:06;;;;;;;6.43;3.75;;;14.30;58.70;;;;;;4839152;29;20240;-86
2022/04/19 08:20:32;;;;;;;7.78;3.90;;;14.40;57.60;;;;;;4854868;29;20120;-85
2022/04/19 08:22:58;;;;;;;8.65;4.03;;;14.50;57.30;;;;;;4854565;29;20077;-86
2022/04/19 08:25:24;;;;;;;9.75;4.40;;;14.70;57.20;;;;;;4854480;29;20375;-86
2022/04/19 08:27:51;;;;;;;10.82;4.93;;;14.70;56.30;;;;;;4841913;29;20034;-86
2022/04/19 08:30:18;;;;;;;6.78;3.47;;;14.80;56.50;;;;;;4856517;29;20033;-86
2022/04/19 08:32:45;;;;;;;7.90;4.20;;;14.90;56.20;;;;;;4841231;29;20087;-86
2022/04/19 08:35:12;;;;;;;6.93;3.78;;;15.10;55.90;;;;;;4841969;29;20483;-84
2022/04/19 08:37:38;;;;;;;8.77;4.88;;;15.20;55.10;;;;;;4855073;29;20035;-85
2022/04/19 08:40:09;;;;;;;7.35;4.22;;;15.30;55.10;;;;;;4857352;29;20141;-86
2022/04/19 08:42:37;;;;;;;6.75;4.30;;;15.30;53.80;;;;;;4822536;29;20049;-86
2022/04/19 08:45:04;;;;;;;6.68;3.88;;;15.50;54.00;;;;;;4838905;29;20101;-81
2022/04/19 08:47:38;;;;;;;8.40;4.80;;;15.50;53.00;;;;;;4839027;29;20060;-85
2022/04/19 08:50:07;;;;;;;8.70;3.80;;;15.50;52.50;;;;;;4836095;29;20140;-83
2022/04/19 08:52:34;;;;;;;8.95;4.28;;;15.60;53.20;;;;;;4859834;29;20033;-85
2022/04/19 08:57:44;;;;;;;32.25;5.32;;;15.80;52.60;;;;;;4855186;29;20061;-83
2022/04/19 09:00:11;;;;;;;7.57;3.97;;;15.90;51.90;;;;;;4852155;29;20349;-82
2022/04/19 09:02:37;;;;;;;6.78;4.03;;;15.90;51.80;;;;;;4854519;29;20120;-85
2022/04/19 09:05:21;;;;;;;75.22;10.27;;;16.00;52.20;;;;;;4835496;29;20132;-85
2022/04/19 09:07:49;;;;;;;6.38;3.30;;;16.00;51.70;;;;;;4852199;29;20048;-84
2022/04/19 09:10:32;;;;;;;6.22;3.50;;;16.20;51.70;;;;;;4854856;29;20088;-85
2022/04/19 09:13:04;;;;;;;7.28;3.35;;;16.20;51.30;;;;;;4868421;29;20042;-85
2022/04/19 09:15:38;;;;;;;6.15;3.33;;;16.30;51.50;;;;;;4838154;29;20052;-84
2022/04/19 09:18:29;;;;;;;5.78;2.90;;;16.40;50.80;;;;;;4851663;29;20132;-84
2022/04/19 09:20:56;;;;;;;6.47;3.42;;;16.60;51.20;;;;;;4854046;29;20044;-83
2022/04/19 09:23:23;;;;;;;5.75;3.10;;;16.60;50.50;;;;;;4855509;29;20048;-82
2022/04/19 09:25:57;;;;;;;6.57;3.22;;;16.70;50.40;;;;;;4837323;29;20038;-84
2022/04/19 09:28:24;;;;;;;6.57;3.47;;;16.80;50.20;;;;;;4827415;29;20086;-83
2022/04/19 09:30:53;;;;;;;8.40;3.13;;;16.90;50.90;;;;;;4857836;29;20457;-85
2022/04/19 09:33:20;;;;;;;7.63;2.45;;;17.10;51.80;;;;;;4855238;29;20097;-83
2022/04/19 09:36:00;;;;;;;7.82;3.15;;;17.20;50.90;;;;;;4856036;29;20120;-85
2022/04/19 09:38:39;;;;;;;7.68;2.88;;;17.20;52.20;;;;;;4852797;29;20578;-84
2022/04/19 09:41:07;;;;;;;6.57;2.90;;;17.30;52.70;;;;;;4839322;29;20064;-85
2022/04/19 09:43:33;;;;;;;6.38;2.47;;;17.50;52.60;;;;;;4854438;29;20136;-85
2022/04/19 09:46:03;;;;;;;5.07;2.60;;;17.50;52.10;;;;;;4871271;29;20420;-86
2022/04/19 09:48:45;;;;;;;6.13;2.53;;;17.50;52.60;;;;;;4856804;29;20049;-86
2022/04/19 09:51:12;;;;;;;5.20;2.35;;;17.60;52.50;;;;;;4857862;29;20034;-83
2022/04/19 09:53:43;;;;;;;4.95;2.58;;;17.70;52.20;;;;;;4854111;29;20373;-85
2022/04/19 09:56:11;;;;;;;5.80;2.47;;;17.70;51.80;;;;;;4856352;29;20787;-86
2022/04/19 09:58:41;;;;;;;4.65;2.30;;;17.80;51.50;;;;;;4840870;29;20048;-85
2022/04/19 10:08:10;;;;;;;5.45;3.10;;;17.90;51.20;;;;;;4853572;29;20595;-84
2022/04/19 10:09:24;;;;;;;4.03;2.67;;;18.10;50.80;;;;;;4852603;29;20049;-82
2022/04/19 10:11:51;;;;;;;4.95;2.95;;;18.10;49.80;;;;;;4852743;29;20037;-85
2022/04/19 10:14:18;;;;;;;6.00;3.25;;;18.20;50.20;;;;;;4856141;29;20391;-86
2022/04/19 10:16:45;;;;;;;5.55;2.40;;;18.30;49.00;;;;;;4840027;29;20124;-85
2022/04/19 10:19:12;;;;;;;5.40;2.22;;;18.30;48.50;;;;;;4853510;29;20077;-82
2022/04/19 10:21:42;;;;;;;2.83;1.92;;;18.30;48.20;;;;;;4850099;29;20101;-85
2022/04/19 10:24:14;;;;;;;5.03;1.95;;;18.30;47.10;;;;;;4866828;29;20049;-84
2022/04/19 10:26:51;;;;;;;5.47;1.40;;;18.30;47.30;;;;;;4839359;29;20057;-85
2022/04/19 10:29:20;;;;;;;3.58;0.88;;;18.30;46.70;;;;;;4853438;29;20346;-85
2022/04/19 10:32:01;;;;;;;2.47;1.23;;;18.40;46.20;;;;;;4842320;29;20045;-85
2022/04/19 10:34:33;;;;;;;2.35;1.33;;;18.40;46.10;;;;;;4868492;29;20056;-86
2022/04/19 10:37:21;;;;;;;3.72;1.80;;;18.60;46.50;;;;;;4840637;29;20041;-86
2022/04/19 10:39:49;;;;;;;4.93;2.28;;;18.70;45.70;;;;;;4868266;29;20165;-85
2022/04/19 10:42:44;;;;;;;2.85;1.73;;;18.70;45.80;;;;;;4843491;29;20155;-86
2022/04/19 10:45:13;;;;;;;3.15;1.70;;;18.80;45.70;;;;;;4827939;29;21464;-85
2022/04/19 10:47:54;;;;;;;3.00;1.65;;;18.80;45.80;;;;;;4853395;29;20060;-85
2022/04/19 10:50:39;;;;;;;3.45;1.38;;;18.90;44.50;;;;;;4858342;29;20037;-86
2022/04/19 10:53:12;;;;;;;2.03;1.08;;;18.80;43.60;;;;;;4830243;29;20033;-85
2022/04/19 10:55:53;;;;;;;1.60;0.90;;;18.80;44.40;;;;;;4843397;29;20160;-84
2022/04/19 10:58:20;;;;;;;2.55;1.00;;;18.70;44.30;;;;;;4867931;29;20041;-83
2022/04/19 11:00:48;;;;;;;3.60;1.10;;;18.80;44.10;;;;;;4854903;29;20113;-86
2022/04/19 11:03:18;;;;;;;4.10;1.20;;;18.80;43.20;;;;;;4853138;29;20042;-86
2022/04/19 11:05:50;;;;;;;3.53;1.02;;;18.90;43.50;;;;;;4837232;29;20156;-84
2022/04/19 11:08:25;;;;;;;2.47;0.98;;;19.00;42.80;;;;;;4869212;29;20045;-86
2022/04/19 11:11:02;;;;;;;1.70;0.85;;;19.10;41.80;;;;;;4855853;29;20565;-86
2022/04/19 11:13:36;;;;;;;2.47;1.10;;;19.20;41.10;;;;;;4855805;29;20528;-86
2022/04/19 11:16:05;;;;;;;3.13;1.20;;;19.40;41.50;;;;;;4853208;29;20079;-85
2022/04/19 11:18:32;;;;;;;2.28;1.40;;;19.50;40.90;;;;;;4832953;29;20411;-85
2022/04/19 11:21:00;;;;;;;4.18;1.10;;;19.50;40.50;;;;;;4853570;29;20503;-85
2022/04/19 11:23:27;;;;;;;2.53;0.88;;;19.50;39.90;;;;;;4836383;29;20185;-86
2022/04/19 11:25:56;;;;;;;3.83;1.77;;;19.60;39.80;;;;;;4838426;29;20527;-81
2022/04/19 11:28:29;;;;;;;3.25;1.15;;;19.60;38.90;;;;;;4854343;29;20045;-84
2022/04/19 11:30:54;;;;;;;;;;;19.60;39.00;;;;;;4856218;29;20444;-85
2022/04/19 11:33:25;;;;;;;2.72;1.10;;;19.70;39.20;;;;;;4867794;29;19944;-85
2022/04/19 11:36:05;;;;;;;2.92;1.15;;;19.80;38.80;;;;;;4853209;29;20061;-86
2022/04/19 11:38:52;;;;;;;1.75;1.00;;;19.90;38.90;;;;;;4850530;29;20089;-86
2022/04/19 11:46:58;;;;;;;1.50;0.80;;;19.90;37.70;;;;;;4871581;29;20068;-83
2022/04/19 11:49:25;;;;;;;1.48;0.80;;;20.00;38.40;;;;;;4856653;29;20479;-85
2022/04/19 11:51:54;;;;;;;3.45;0.70;;;20.10;37.30;;;;;;4858103;29;20539;-86
2022/04/19 11:54:25;;;;;;;1.65;0.60;;;20.20;37.00;;;;;;4856163;29;20037;-86
2022/04/19 11:56:56;;;;;;;1.92;1.10;;;20.30;36.50;;;;;;4858515;29;20056;-86
2022/04/19 11:59:31;;;;;;;2.90;0.80;;;20.40;36.40;;;;;;4854795;29;20073;-84
2022/04/19 12:01:57;;;;;;;3.25;1.02;;;20.40;36.40;;;;;;4855701;29;20040;-85
2022/04/19 12:04:23;;;;;;;3.50;1.10;;;20.40;37.20;;;;;;4855205;29;20064;-81
2022/04/19 12:06:52;;;;;;;6.03;1.30;;;20.40;37.10;;;;;;4868404;29;20037;-86
2022/04/19 12:09:19;;;;;;;4.15;1.08;;;20.40;36.80;;;;;;4836922;29;20045;-85
2022/04/19 12:11:47;;;;;;;2.72;1.40;;;20.40;37.80;;;;;;4853399;29;20041;-86
2022/04/19 12:14:29;;;;;;;2.30;0.98;;;20.40;37.00;;;;;;4850231;29;20221;-85
2022/04/19 12:16:58;;;;;;;;;;;20.40;36.90;;;;;;4872984;29;20128;-85
2022/04/19 12:19:40;;;;;;;4.90;1.20;;;20.40;36.80;;;;;;4856988;29;19923;-85
2022/04/19 12:22:22;;;;;;;2.95;0.80;;;20.50;36.70;;;;;;4852530;29;20096;-86
2022/04/19 12:24:58;;;;;;;5.10;0.80;;;20.60;37.60;;;;;;4858221;29;20051;-85
2022/04/19 12:27:28;;;;;;;2.35;0.65;;;20.70;37.80;;;;;;4857342;29;20343;-86
2022/04/19 12:30:04;;;;;;;3.10;0.70;;;20.70;37.60;;;;;;4857468;29;20033;-86
2022/04/19 12:33:08;;;;;;;1.33;0.70;;;20.70;37.00;;;;;;4854524;29;20033;-85
2022/04/19 12:35:34;;;;;;;1.88;0.50;;;20.80;36.70;;;;;;4823355;29;20060;-85
2022/04/19 12:38:18;;;;;;;1.88;0.80;;;20.80;37.60;;;;;;4871272;29;20067;-85
2022/04/19 12:40:45;;;;;;;3.92;0.80;;;20.90;37.40;;;;;;4841341;29;20064;-85
2022/04/19 12:43:14;;;;;;;3.85;0.80;;;21.00;37.70;;;;;;4872169;29;20053;-86
2022/04/19 12:45:41;;;;;;;1.25;0.65;;;21.10;36.80;;;;;;4839884;29;20064;-84
2022/04/19 12:48:20;;;;;;;2.13;0.80;;;21.20;36.90;;;;;;4854096;29;20116;-86
2022/04/19 12:50:46;;;;;;;2.63;0.70;;;21.30;36.50;;;;;;4843202;29;20043;-86
2022/04/19 12:53:24;;;;;;;1.70;0.63;;;21.40;35.80;;;;;;4859643;29;20101;-85
2022/04/19 12:55:50;;;;;;;1.95;0.85;;;21.40;36.50;;;;;;4858195;29;20048;-85
2022/04/19 12:58:16;;;;;;;5.43;0.75;;;21.40;36.40;;;;;;4854582;29;20064;-80
2022/04/19 13:00:41;;;;;;;1.85;0.77;;;21.60;36.70;;;;;;4860843;29;20127;-79
2022/04/19 13:03:07;;;;;;;3.67;0.80;;;21.80;36.00;;;;;;4846794;29;20048;-81
2022/04/19 13:13:45;;;;;;;4.30;0.98;;;22.30;35.00;;;;;;4879628;29;20055;-81
2022/04/19 13:16:11;;;;;;;1.60;0.95;;;22.60;34.50;;;;;;4863299;29;20057;-80
2022/04/19 13:18:37;;;;;;;2.35;1.00;;;22.80;34.20;;;;;;4857403;29;20064;-80
2022/04/19 13:21:03;;;;;;;1.70;0.70;;;23.20;33.40;;;;;;4846031;29;20087;-80
2022/04/19 13:23:29;;;;;;;2.10;0.70;;;23.70;32.60;;;;;;4843041;29;20125;-80
2022/04/19 13:25:55;;;;;;;1.65;0.80;;;24.20;32.00;;;;;;4858601;29;20065;-80
2022/04/19 13:28:25;;;;;;;1.98;0.85;;;24.60;31.30;;;;;;4842775;29;20071;-81
2022/04/19 13:30:54;;;;;;;1.85;0.75;;;25.00;31.20;;;;;;4863640;29;20069;-81
2022/04/19 13:33:20;;;;;;;2.28;1.00;;;25.30;30.30;;;;;;4875603;29;20068;-80